Time;durP1;ratioP1;P1;durP2;ratioP2;P2;SDS_P1;SDS_P2;PMS_P1;PMS_P2;Temp;Humidity;BMP_temperature;BMP_pressure;BME280_temperature;BME280_humidity;BME280_pressure;Samples;Min_cycle;Max_cycle;Signal;HPM_P1;HPM_P2
2022/09/20 00:01:16;;;;;;;9.38;2.25;;;;;;;10.44;100.00;102460.81;7385302;19;20007;-72
2022/09/20 00:03:47;;;;;;;9.02;2.63;;;;;;;10.43;100.00;102462.53;7384672;19;20021;-72
2022/09/20 00:06:19;;;;;;;6.05;2.90;;;;;;;10.41;100.00;102465.94;7383453;19;20017;-72
2022/09/20 00:08:49;;;;;;;5.22;2.10;;;;;;;10.37;100.00;102456.19;7384665;19;20385;-73
2022/09/20 00:11:22;;;;;;;8.60;2.50;;;;;;;10.36;100.00;102455.28;7384788;19;20014;-73
2022/09/20 00:13:56;;;;;;;6.25;2.30;;;;;;;10.33;100.00;102449.03;7383085;19;20474;-73
2022/09/20 00:16:27;;;;;;;4.18;2.15;;;;;;;10.31;100.00;102450.69;7384514;19;20011;-75
2022/09/20 00:18:59;;;;;;;4.80;2.10;;;;;;;10.29;100.00;102454.97;7382078;19;20117;-73
2022/09/20 00:21:32;;;;;;;5.25;2.33;;;;;;;10.28;100.00;102447.94;7383581;19;20070;-73
2022/09/20 00:24:02;;;;;;;8.52;2.85;;;;;;;10.31;100.00;102450.69;7381882;19;20514;-75
2022/09/20 00:26:31;;;;;;;6.03;3.38;;;;;;;10.31;100.00;102462.09;7382504;19;20039;-76
2022/09/20 00:29:04;;;;;;;8.68;3.50;;;;;;;10.34;100.00;102471.81;7382456;19;20134;-75
2022/09/20 00:31:34;;;;;;;12.27;5.18;;;;;;;10.39;100.00;102470.25;7383763;19;20025;-76
2022/09/20 00:36:49;;;;;;;8.95;4.00;;;;;;;10.49;100.00;102475.00;7383347;19;20018;-76
2022/09/20 00:39:19;;;;;;;14.30;3.95;;;;;;;10.57;100.00;102481.44;7383832;19;20047;-76
2022/09/20 00:41:49;;;;;;;10.70;3.67;;;;;;;10.58;100.00;102480.59;7383016;19;20021;-76
2022/09/20 00:44:46;;;;;;;14.77;3.08;;;;;;;10.60;100.00;102476.31;7383564;19;20017;-75
2022/09/20 00:47:26;;;;;;;8.95;2.60;;;;;;;10.58;100.00;102472.75;7383717;19;20018;-75
2022/09/20 00:50:01;;;;;;;7.30;2.78;;;;;;;10.59;100.00;102478.88;7382258;19;20383;-75
2022/09/20 00:52:31;;;;;;;5.95;2.47;;;;;;;10.59;100.00;102473.63;7375784;19;20017;-75
2022/09/20 00:55:03;;;;;;;7.72;2.90;;;;;;;10.57;100.00;102468.31;7382766;19;20010;-75
2022/09/20 00:57:35;;;;;;;4.70;2.30;;;;;;;10.56;100.00;102463.91;7381047;19;20015;-76
2022/09/20 01:00:11;;;;;;;5.72;2.53;;;;;;;10.55;100.00;102467.38;7382908;19;20015;-75
2022/09/20 01:02:47;;;;;;;7.03;2.85;;;;;;;10.54;100.00;102459.44;7382432;19;20043;-75
2022/09/20 01:05:19;;;;;;;8.32;2.50;;;;;;;10.51;100.00;102464.56;7382504;19;20049;-75
2022/09/20 01:07:52;;;;;;;6.70;2.75;;;;;;;10.49;100.00;102459.25;7381756;19;20028;-75
2022/09/20 01:10:21;;;;;;;8.48;2.70;;;;;;;10.48;100.00;102460.09;7382646;19;20017;-75
2022/09/20 01:12:53;;;;;;;4.45;2.22;;;;;;;10.47;100.00;102453.06;7379241;19;20010;-75
2022/09/20 01:15:27;;;;;;;9.18;2.70;;;;;;;10.47;100.00;102458.31;7378011;19;20018;-75
2022/09/20 01:18:01;;;;;;;7.15;2.40;;;;;;;10.43;100.00;102453.78;7381599;19;20011;-75
2022/09/20 01:20:33;;;;;;;11.27;3.00;;;;;;;10.43;100.00;102454.66;7380295;19;20014;-75
2022/09/20 01:23:26;;;;;;;8.98;3.15;;;;;;;10.41;100.00;102458.06;7381533;19;20007;-75
2022/09/20 01:26:23;;;;;;;8.40;3.00;;;;;;;10.40;100.00;102458.94;7382878;19;20019;-73
2022/09/20 01:29:03;;;;;;;5.07;2.17;;;;;;;10.38;100.00;102457.97;7382915;19;20017;-73
2022/09/20 01:31:36;;;;;;;9.70;2.70;;;;;;;10.35;100.00;102453.50;7382561;19;20474;-73
2022/09/20 01:34:12;;;;;;;7.95;3.03;;;;;;;10.34;100.00;102458.69;7378284;19;20065;-76
2022/09/20 01:36:47;;;;;;;9.88;2.97;;;;;;;10.31;100.00;102461.19;7381239;19;20013;-75
2022/09/20 01:39:27;;;;;;;8.80;3.22;;;;;;;10.30;100.00;102481.28;7380933;19;20478;-76
2022/09/20 01:42:00;;;;;;;8.32;2.70;;;;;;;10.28;100.00;102477.69;7381780;19;20021;-75
2022/09/20 01:44:39;;;;;;;13.65;3.30;;;;;;;10.25;100.00;102480.19;7379026;19;20662;-75
2022/09/20 01:47:19;;;;;;;7.25;2.83;;;;;;;10.24;100.00;102485.38;7380222;19;20015;-75
2022/09/20 01:49:57;;;;;;;6.35;2.42;;;;;;;10.20;100.00;102483.47;7379832;19;20006;-75
2022/09/20 01:53:11;;;;;;;10.82;2.70;;;;;;;10.16;100.00;102471.91;7378548;19;20044;-75
2022/09/20 01:56:13;;;;;;;8.67;2.90;;;;;;;10.13;100.00;102467.44;7379291;19;20015;-76
2022/09/20 01:59:10;;;;;;;6.75;2.47;;;;;;;10.10;100.00;102462.06;7378421;19;20017;-75
2022/09/20 02:02:11;;;;;;;5.15;2.38;;;;;;;10.06;100.00;102465.41;7377887;19;20019;-75
2022/09/20 02:05:10;;;;;;;6.35;2.28;;;;;;;10.00;100.00;102459.00;7377599;19;20038;-76
2022/09/20 02:07:56;;;;;;;8.27;2.78;;;;;;;9.91;100.00;102456.91;7374840;19;20026;-76
2022/09/20 02:10:45;;;;;;;6.65;2.55;;;;;;;9.86;100.00;102458.44;7378635;19;20010;-75
2022/09/20 02:13:29;;;;;;;8.45;2.47;;;;;;;9.81;100.00;102453.00;7381945;19;20010;-75
2022/09/20 02:16:32;;;;;;;7.40;2.85;;;;;;;9.79;100.00;102448.53;7380394;19;20015;-75
2022/09/20 02:19:22;;;;;;;6.78;2.55;;;;;;;9.76;100.00;102451.03;7379350;19;20011;-75
2022/09/20 02:22:03;;;;;;;6.95;2.70;;;;;;;9.72;100.00;102447.38;7377282;19;20023;-75
2022/09/20 02:24:44;;;;;;;9.00;3.22;;;;;;;9.68;100.00;102455.94;7378511;19;20100;-76
2022/09/20 02:27:25;;;;;;;10.43;2.78;;;;;;;9.67;100.00;102458.47;7378088;19;20017;-76
2022/09/20 02:30:11;;;;;;;6.07;2.50;;;;;;;9.66;100.00;102452.34;7365569;19;20021;-74
2022/09/20 02:32:57;;;;;;;6.60;2.75;;;;;;;9.67;100.00;102448.91;7379355;19;20018;-76
2022/09/20 02:35:48;;;;;;;10.27;3.03;;;;;;;9.67;100.00;102448.91;7379713;19;20023;-74
2022/09/20 02:38:30;;;;;;;10.73;3.00;;;;;;;9.70;100.00;102448.13;7380463;19;20011;-75
2022/09/20 02:41:20;;;;;;;9.90;3.08;;;;;;;9.71;100.00;102452.53;7375424;19;20577;-76
2022/09/20 02:43:57;;;;;;;7.22;2.70;;;;;;;9.72;100.00;102451.72;7380103;19;20010;-76
2022/09/20 02:46:32;;;;;;;7.20;2.50;;;;;;;9.75;100.00;102452.75;7377903;19;20026;-74
2022/09/20 02:49:11;;;;;;;8.40;3.28;;;;;;;9.77;100.00;102445.84;7377570;19;20014;-75
2022/09/20 02:51:48;;;;;;;7.28;3.17;;;;;;;9.79;100.00;102459.00;7381246;19;20017;-74
2022/09/20 02:54:29;;;;;;;9.88;3.55;;;;;;;9.80;100.00;102452.94;7376808;19;20087;-75
2022/09/20 02:57:05;;;;;;;6.72;2.88;;;;;;;9.80;100.00;102451.22;7379284;19;20006;-74
2022/09/20 02:59:45;;;;;;;10.10;3.50;;;;;;;9.80;100.00;102447.69;7376793;19;20026;-75
2022/09/20 03:02:28;;;;;;;8.68;3.13;;;;;;;9.79;100.00;102459.91;7377730;19;20553;-74
2022/09/20 03:05:13;;;;;;;10.23;2.97;;;;;;;9.77;100.00;102456.31;7379265;19;20016;-75
2022/09/20 03:08:04;;;;;;;11.70;3.17;;;;;;;9.77;100.00;102450.19;7375213;19;20018;-75
2022/09/20 03:10:40;;;;;;;13.23;3.45;;;;;;;9.73;100.00;102448.28;7375976;19;20014;-75
2022/09/20 03:13:24;;;;;;;6.85;2.90;;;;;;;9.70;100.00;102450.75;7378665;19;20015;-73
2022/09/20 03:16:04;;;;;;;11.32;3.30;;;;;;;9.68;100.00;102450.69;7379651;19;20010;-73
2022/09/20 03:18:46;;;;;;;11.63;2.97;;;;;;;9.64;100.00;102445.25;7378211;19;20042;-75
2022/09/20 03:21:32;;;;;;;8.00;3.00;;;;;;;9.62;100.00;102450.44;7379425;19;20048;-72
2022/09/20 03:24:18;;;;;;;9.10;3.20;;;;;;;9.63;100.00;102452.22;7372314;19;20010;-72
2022/09/20 03:26:57;;;;;;;7.35;2.65;;;;;;;9.63;100.00;102446.09;7376718;19;20551;-73
2022/09/20 03:29:42;;;;;;;7.57;2.90;;;;;;;9.66;100.00;102447.13;7379296;19;20011;-73
2022/09/20 03:32:29;;;;;;;7.93;3.35;;;;;;;9.72;100.00;102441.25;7378705;19;20516;-73
2022/09/20 03:35:07;;;;;;;9.88;3.13;;;;;;;9.74;100.00;102445.72;7376678;19;20026;-72
2022/09/20 03:38:00;;;;;;;7.13;3.00;;;;;;;9.80;100.00;102445.97;7380216;19;20010;-73
2022/09/20 03:40:58;;;;;;;6.65;2.70;;;;;;;9.81;100.00;102442.53;7376825;19;20043;-72
2022/09/20 03:43:44;;;;;;;8.32;3.53;;;;;;;9.83;100.00;102445.22;7376601;19;20013;-72
2022/09/20 03:46:19;;;;;;;7.47;2.58;;;;;;;9.83;100.00;102450.44;7378779;19;20006;-77
2022/09/20 03:49:08;;;;;;;7.45;3.00;;;;;;;9.87;100.00;102448.84;7378957;19;20320;-75
2022/09/20 03:51:46;;;;;;;7.97;3.25;;;;;;;9.88;100.00;102451.53;7378647;19;20010;-75
2022/09/20 03:54:36;;;;;;;9.15;3.78;;;;;;;9.91;100.00;102453.38;7373390;19;20294;-73
2022/09/20 03:57:27;;;;;;;7.28;3.10;;;;;;;9.91;100.00;102449.03;7377501;19;20026;-73
2022/09/20 04:00:10;;;;;;;9.13;3.47;;;;;;;9.95;100.00;102455.31;7377519;19;20030;-75
2022/09/20 04:03:07;;;;;;;9.93;4.25;;;;;;;9.96;100.00;102463.22;7376643;19;20015;-75
2022/09/20 04:05:52;;;;;;;5.28;2.67;;;;;;;9.99;100.00;102468.59;7375279;19;20026;-75
2022/09/20 04:08:40;;;;;;;9.20;3.55;;;;;;;10.01;100.00;102473.91;7379135;19;20010;-75
2022/09/20 04:11:19;;;;;;;11.73;3.50;;;;;;;10.02;100.00;102480.94;7377245;19;20010;-74
2022/09/20 04:13:58;;;;;;;9.65;3.25;;;;;;;10.04;100.00;102487.13;7376891;19;20021;-73
2022/09/20 04:16:39;;;;;;;8.70;3.78;;;;;;;10.04;100.00;102471.41;7376254;19;20054;-73
2022/09/20 04:19:16;;;;;;;9.60;4.05;;;;;;;10.06;100.00;102481.13;7376881;19;20025;-72
2022/09/20 04:21:54;;;;;;;7.22;3.33;;;;;;;10.11;100.00;102481.31;7374043;19;20022;-73
2022/09/20 04:24:43;;;;;;;10.70;3.75;;;;;;;10.12;100.00;102480.47;7376879;19;20010;-73
2022/09/20 04:27:19;;;;;;;8.35;2.88;;;;;;;10.15;100.00;102470.13;7375361;19;20018;-72
2022/09/20 04:29:59;;;;;;;11.93;3.47;;;;;;;10.15;100.00;102471.03;7376505;19;20014;-73
2022/09/20 04:32:37;;;;;;;7.63;2.90;;;;;;;10.17;100.00;102478.94;7381959;19;20029;-72
2022/09/20 04:37:58;;;;;;;10.48;2.90;;;;;;;10.22;100.00;102479.16;7382607;19;20018;-72
2022/09/20 04:40:51;;;;;;;5.13;2.33;;;;;;;10.31;100.00;102482.16;7383347;19;20006;-72
2022/09/20 04:43:52;;;;;;;8.05;2.50;;;;;;;10.35;100.00;102484.09;7382223;19;20011;-72
2022/09/20 04:47:04;;;;;;;12.00;2.45;;;;;;;10.40;100.00;102482.53;7385606;19;20078;-73
2022/09/20 04:50:01;;;;;;;7.25;2.50;;;;;;;10.43;100.00;102480.00;7382655;19;20034;-72
2022/09/20 04:53:11;;;;;;;6.97;2.17;;;;;;;10.42;100.00;102484.34;7381926;19;20018;-72
2022/09/20 04:55:57;;;;;;;5.78;2.10;;;;;;;10.44;100.00;102479.16;7379955;19;20015;-74
2022/09/20 04:58:39;;;;;;;5.32;2.00;;;;;;;10.46;100.00;102477.50;7382817;19;20016;-72
2022/09/20 05:01:57;;;;;;;5.80;3.38;;;;;;;10.48;100.00;102483.69;7382066;19;20035;-73
2022/09/20 05:05:09;;;;;;;6.70;2.40;;;;;;;10.49;100.00;102482.88;7382824;19;20014;-72
2022/09/20 05:08:13;;;;;;;6.53;1.92;;;;;;;10.52;100.00;102484.72;7382965;19;20024;-72
2022/09/20 05:11:12;;;;;;;4.88;1.90;;;;;;;10.53;100.00;102481.25;7380098;19;20038;-72
2022/09/20 05:13:59;;;;;;;10.13;2.47;;;;;;;10.53;100.00;102482.16;7381116;19;20007;-72
2022/09/20 05:16:46;;;;;;;7.60;2.40;;;;;;;10.54;100.00;102481.31;7383707;19;20014;-71
2022/09/20 05:19:32;;;;;;;7.05;2.22;;;;;;;10.54;100.00;102481.31;7381199;19;20067;-72
2022/09/20 05:22:26;;;;;;;6.57;2.42;;;;;;;10.55;100.00;102488.34;7380640;19;20011;-71
2022/09/20 05:25:32;;;;;;;8.13;2.40;;;;;;;10.55;100.00;102485.72;7382126;19;20007;-72
2022/09/20 05:28:11;;;;;;;6.18;2.50;;;;;;;10.56;100.00;102484.91;7376522;19;20052;-72
2022/09/20 05:30:47;;;;;;;8.30;2.85;;;;;;;10.56;100.00;102484.91;7380940;19;20029;-72
2022/09/20 05:33:23;;;;;;;6.22;2.25;;;;;;;10.56;100.00;102484.91;7380563;19;20519;-72
2022/09/20 05:36:06;;;;;;;6.43;2.60;;;;;;;10.56;100.00;102484.91;7379861;19;20421;-72
2022/09/20 05:38:49;;;;;;;7.80;2.85;;;;;;;10.58;100.00;102480.59;7380006;19;20340;-72
2022/09/20 05:41:30;;;;;;;6.57;2.33;;;;;;;10.60;100.00;102478.94;7382503;19;20010;-73
2022/09/20 05:44:12;;;;;;;4.88;2.33;;;;;;;10.62;100.00;102473.75;7380431;19;20086;-72
2022/09/20 05:46:51;;;;;;;5.35;2.80;;;;;;;10.62;100.00;102477.28;7380702;19;20081;-72
2022/09/20 05:49:39;;;;;;;8.18;2.28;;;;;;;10.62;100.00;102485.16;7382832;19;20020;-72
2022/09/20 05:52:25;;;;;;;10.00;2.70;;;;;;;10.65;100.00;102481.75;7379645;19;20050;-72
2022/09/20 05:55:20;;;;;;;13.60;3.15;;;;;;;10.65;100.00;102487.00;7381152;19;20018;-73
2022/09/20 05:58:05;;;;;;;6.03;2.38;;;;;;;10.67;100.00;102488.84;7379470;19;20018;-73
2022/09/20 06:00:42;;;;;;;9.85;2.65;;;;;;;10.71;100.00;102489.84;7380328;19;20011;-73
2022/09/20 06:03:20;;;;;;;7.07;2.60;;;;;;;10.72;100.00;102489.91;7381405;19;20494;-72
2022/09/20 06:06:00;;;;;;;5.22;2.50;;;;;;;10.77;100.00;102496.22;7380476;19;20021;-72
2022/09/20 06:08:45;;;;;;;5.20;2.42;;;;;;;10.80;100.00;102495.47;7379714;19;20458;-72
2022/09/20 06:11:49;;;;;;;10.25;2.55;;;;;;;10.84;100.00;102500.00;7381943;19;20018;-73
2022/09/20 06:14:32;;;;;;;7.13;2.58;;;;;;;10.89;100.00;102500.16;7381809;19;20082;-73
2022/09/20 06:17:15;;;;;;;7.07;2.50;;;;;;;10.92;100.00;102501.19;7378148;19;20030;-72
2022/09/20 06:19:50;;;;;;;7.57;2.75;;;;;;;10.97;100.00;102501.34;7380850;19;20019;-73
2022/09/20 06:22:26;;;;;;;11.88;3.30;;;;;;;10.99;100.00;102507.56;7381467;19;20093;-75
2022/09/20 06:25:03;;;;;;;6.05;2.70;;;;;;;11.05;100.00;102510.41;7377363;19;20415;-74
2022/09/20 06:27:41;;;;;;;11.23;3.00;;;;;;;11.09;100.00;102505.34;7379779;19;20034;-74
2022/09/20 06:30:18;;;;;;;5.82;2.95;;;;;;;11.15;100.00;102509.94;7377919;19;20033;-74
2022/09/20 06:32:59;;;;;;;8.52;3.35;;;;;;;11.24;100.00;102507.66;7379712;19;20006;-73
2022/09/20 06:35:37;;;;;;;10.10;3.08;;;;;;;11.33;100.00;102504.47;7380090;19;20043;-74
2022/09/20 06:43:49;;;;;;;6.75;2.78;;;;;;;11.50;100.00;102519.06;7378208;19;20404;-73
2022/09/20 06:46:19;;;;;;;8.90;2.90;;;;;;;11.50;100.00;102512.94;7381270;19;20093;-75
2022/09/20 06:48:50;;;;;;;7.07;3.22;;;;;;;11.52;100.00;102511.25;7378325;19;20078;-73
2022/09/20 06:51:19;;;;;;;7.80;3.00;;;;;;;11.54;100.00;102517.44;7381648;19;20015;-73
2022/09/20 06:53:50;;;;;;;7.85;2.63;;;;;;;11.61;100.00;102506.31;7375802;19;20574;-75
2022/09/20 06:56:25;;;;;;;7.07;3.00;;;;;;;11.69;100.00;102516.25;7378835;19;20129;-73
2022/09/20 06:58:58;;;;;;;13.77;3.17;;;;;;;11.75;100.00;102512.97;7378737;19;20074;-74
2022/09/20 07:01:27;;;;;;;6.68;2.67;;;;;;;11.86;100.00;102522.16;7379913;19;20010;-74
2022/09/20 07:04:00;;;;;;;9.20;2.70;;;;;;;11.92;100.00;102524.09;7378889;19;20082;-75
2022/09/20 07:06:30;;;;;;;6.75;2.80;;;;;;;12.07;100.00;102525.50;7381025;19;20026;-73
2022/09/20 07:09:00;;;;;;;8.02;3.10;;;;;;;12.15;100.00;102523.16;7379384;19;20513;-73
2022/09/20 07:11:33;;;;;;;7.03;2.83;;;;;;;12.28;100.00;102520.06;7378621;19;20013;-73
2022/09/20 07:14:06;;;;;;;6.18;2.60;;;;;;;12.51;100.00;102512.91;7377465;19;20007;-73
2022/09/20 07:16:36;;;;;;;8.45;3.15;;;;;;;12.66;100.00;102513.38;7376503;19;20018;-72
2022/09/20 07:19:07;;;;;;;7.65;2.70;;;;;;;12.84;100.00;102514.81;7377061;19;20010;-73
2022/09/20 07:21:36;;;;;;;9.48;2.58;;;;;;;12.96;100.00;102520.44;7376161;19;20086;-73
2022/09/20 07:24:06;;;;;;;8.73;2.50;;;;;;;13.24;100.00;102520.44;7377222;19;20023;-75
2022/09/20 07:26:37;;;;;;;7.28;2.60;;;;;;;13.52;100.00;102521.22;7375766;19;20451;-72
2022/09/20 07:29:11;;;;;;;6.70;2.80;;;;;;;13.60;100.00;102517.03;7379111;19;20025;-73
2022/09/20 07:31:40;;;;;;;5.00;2.50;;;;;;;13.73;100.00;102521.78;7379676;19;20031;-73
2022/09/20 07:34:10;;;;;;;4.45;2.17;;;;;;;13.49;100.00;102522.03;7377989;19;20063;-73
2022/09/20 07:36:40;;;;;;;8.27;2.30;;;;;;;13.52;100.00;102526.50;7376330;19;20108;-73
2022/09/20 07:39:09;;;;;;;8.65;2.53;;;;;;;13.99;100.00;102531.28;7379656;19;20330;-73
2022/09/20 07:41:39;;;;;;;11.10;2.63;;;;;;;14.18;100.00;102523.84;7377754;19;20540;-74
2022/09/20 07:44:23;;;;;;;9.50;2.33;;;;;;;14.52;100.00;102533.53;7376690;19;20382;-73
2022/09/20 07:46:57;;;;;;;5.55;2.20;;;;;;;14.90;100.00;102530.00;7380087;19;20038;-74
2022/09/20 07:49:29;;;;;;;8.60;2.55;;;;;;;14.78;100.00;102535.00;7377733;19;20023;-74
2022/09/20 07:51:59;;;;;;;7.57;2.22;;;;;;;14.61;100.00;102539.88;7378353;19;20040;-74
2022/09/20 07:54:29;;;;;;;5.80;2.15;;;;;;;14.64;100.00;102542.59;7375499;19;20010;-73
2022/09/20 07:56:59;;;;;;;6.32;2.05;;;;;;;14.97;100.00;102546.88;7376911;19;20015;-73
2022/09/20 07:59:31;;;;;;;7.68;1.90;;;;;;;15.31;100.00;102546.75;7377533;19;20025;-73
2022/09/20 08:02:01;;;;;;;6.07;1.95;;;;;;;15.19;100.00;102546.47;7378085;19;20086;-73
2022/09/20 08:04:31;;;;;;;4.70;1.95;;;;;;;15.51;100.00;102555.09;7377045;19;20014;-74
2022/09/20 08:07:00;;;;;;;4.70;1.88;;;;;;;15.52;100.00;102555.97;7380320;19;20018;-74
2022/09/20 08:09:30;;;;;;;5.07;1.77;;;;;;;15.36;100.00;102552.13;7384966;19;20124;-73
2022/09/20 08:12:00;;;;;;;6.53;2.35;;;;;;;15.43;100.00;102550.50;7382439;19;20023;-73
2022/09/20 08:14:53;;;;;;;2.83;1.70;;;;;;;15.72;100.00;102561.66;7383833;19;20632;-73
2022/09/20 08:17:23;;;;;;;4.25;1.85;;;;;;;15.88;100.00;102553.16;7380398;19;20443;-72
2022/09/20 08:19:54;;;;;;;4.88;1.55;;;;;;;16.10;100.00;102557.97;7384919;19;20114;-73
2022/09/20 08:22:23;;;;;;;5.28;1.90;;;;;;;15.92;100.00;102558.53;7381846;19;20018;-72
2022/09/20 08:24:53;;;;;;;3.55;2.00;;;;;;;15.85;100.00;102558.38;7379691;19;20015;-71
2022/09/20 08:27:24;;;;;;;4.70;1.63;;;;;;;15.89;100.00;102562.88;7382422;19;20006;-72
2022/09/20 08:29:56;;;;;;;4.80;1.63;;;;;;;16.07;100.00;102572.91;7385020;19;20032;-71
2022/09/20 08:32:26;;;;;;;5.10;1.70;;;;;;;16.29;100.00;102561.84;7382121;19;20397;-72
2022/09/20 08:34:56;;;;;;;6.93;1.60;;;;;;;16.29;100.00;102567.13;7384761;19;20014;-72
2022/09/20 08:37:26;;;;;;;5.13;1.90;;;;;;;16.27;100.00;102569.75;7381214;19;20002;-72
2022/09/20 08:39:55;;;;;;;5.63;1.73;;;;;;;16.20;100.00;102570.50;7383326;19;20055;-72
2022/09/20 08:42:30;;;;;;;5.32;1.80;;;;;;;16.35;100.00;102575.19;7381593;19;20070;-72
2022/09/20 08:45:19;;;;;;;4.40;1.60;;;;;;;16.41;100.00;102580.59;7383441;19;20021;-71
2022/09/20 08:48:07;;;;;;;5.38;1.50;;;;;;;16.57;100.00;102571.13;7382895;19;20010;-71
2022/09/20 08:50:38;;;;;;;4.72;1.60;;;;;;;16.77;100.00;102584.69;7382598;19;20108;-72
2022/09/20 08:53:08;;;;;;;5.57;1.75;;;;;;;16.80;100.00;102584.75;7384036;19;20022;-72
2022/09/20 08:55:40;;;;;;;7.40;1.58;;;;;;;17.02;100.00;102585.97;7384883;19;20011;-73
2022/09/20 08:58:13;;;;;;;2.80;1.42;;;;;;;16.75;100.00;102587.31;7384907;19;20126;-72
2022/09/20 09:00:47;;;;;;;3.72;1.60;;;;;;;16.55;100.00;102584.34;7380749;19;20011;-71
2022/09/20 09:03:19;;;;;;;7.88;1.58;;;;;;;16.24;100.00;102587.34;7383239;19;20017;-72
2022/09/20 09:05:51;;;;;;;6.15;1.92;;;;;;;16.39;100.00;102595.56;7381541;19;20010;-72
2022/09/20 09:08:23;;;;;;;6.50;1.50;;;;;;;16.64;100.00;102591.53;7382294;19;20006;-74
2022/09/20 09:10:56;;;;;;;8.15;2.88;;;;;;;16.87;100.00;102586.63;7384728;19;20022;-73
2022/09/20 09:13:31;;;;;;;8.07;2.00;;;;;;;17.15;100.00;102591.47;7381218;19;20011;-74
2022/09/20 09:16:10;;;;;;;9.05;3.05;;;;;;;17.30;100.00;102599.63;7380611;19;20019;-73
2022/09/20 09:18:43;;;;;;;7.50;1.95;;;;;;;17.33;100.00;102599.66;7380902;19;20043;-73
2022/09/20 09:21:20;;;;;;;5.13;1.80;;;;;;;16.96;100.00;102598.25;7382359;19;20014;-73
2022/09/20 09:23:56;;;;;;;6.22;2.55;;;;;;;16.84;100.00;102592.75;7381970;19;20092;-73
2022/09/20 09:26:27;;;;;;;6.35;1.70;;;;;;;17.10;100.00;102600.22;7381410;19;20017;-74
2022/09/20 09:29:17;;;;;;;5.95;1.85;;;;;;;17.50;100.00;102604.31;7382877;19;20014;-74
2022/09/20 09:31:53;;;;;;;5.60;1.88;;;;;;;16.78;100.00;102603.25;7379995;19;20021;-74
2022/09/20 09:34:29;;;;;;;4.85;1.75;;;;;;;17.05;100.00;102601.91;7377460;19;20007;-74
2022/09/20 09:37:00;;;;;;;5.22;1.70;;;;;;;17.36;100.00;102605.88;7380206;19;20015;-74
2022/09/20 09:39:34;;;;;;;5.00;1.70;;;;;;;17.49;100.00;102602.50;7381461;19;20018;-73
2022/09/20 09:42:21;;;;;;;4.30;1.33;;;;;;;16.94;100.00;102604.41;7380754;19;20025;-73
2022/09/20 09:44:51;;;;;;;4.45;1.73;;;;;;;16.81;100.00;102602.44;7382853;19;20111;-74
2022/09/20 09:47:30;;;;;;;5.72;1.58;;;;;;;17.23;100.00;102599.53;7379247;19;20021;-74
2022/09/20 09:50:00;;;;;;;5.47;1.80;;;;;;;17.44;100.00;102598.91;7381771;19;20018;-74
2022/09/20 09:52:38;;;;;;;4.40;1.92;;;;;;;17.77;100.00;102599.31;7378121;19;20014;-76
2022/09/20 09:55:10;;;;;;;5.38;1.52;;;;;;;17.98;100.00;102596.03;7381642;19;20019;-74
2022/09/20 09:57:54;;;;;;;8.13;1.90;;;;;;;18.31;100.00;102600.78;7379755;19;20033;-73
2022/09/20 10:00:26;;;;;;;3.22;1.30;;;;;;;18.80;100.00;102595.88;7380577;19;20007;-74
2022/09/20 10:03:19;;;;;;;4.20;1.73;;;;;;;18.13;100.00;102595.28;7380155;19;20011;-74
2022/09/20 10:06:03;;;;;;;2.72;1.30;;;;;;;18.14;100.00;102592.66;7380869;19;20015;-75
2022/09/20 10:08:42;;;;;;;5.00;2.00;;;;;;;18.28;100.00;102595.44;7378589;19;20074;-74
2022/09/20 10:11:25;;;;;;;5.22;1.70;;;;;;;17.64;100.00;102589.44;7380793;19;20029;-73
2022/09/20 10:14:04;;;;;;;6.95;1.50;;;;;;;17.10;100.00;102603.75;7380115;19;20451;-75
2022/09/20 10:16:55;;;;;;;4.82;1.40;;;;;;;17.59;100.00;102599.09;7379148;19;20015;-71
2022/09/20 10:19:42;;;;;;;5.18;1.50;;;;;;;17.94;100.00;102595.09;7380877;19;20639;-71
2022/09/20 10:22:18;;;;;;;2.45;1.33;;;;;;;17.30;100.00;102593.44;7379022;19;20015;-73
2022/09/20 10:24:54;;;;;;;6.32;1.60;;;;;;;17.09;100.00;102595.78;7378632;19;20010;-71
2022/09/20 10:27:38;;;;;;;2.22;1.17;;;;;;;16.91;100.00;102597.28;7379912;19;20010;-71
2022/09/20 10:30:14;;;;;;;6.75;1.90;;;;;;;16.83;100.00;102601.59;7379395;19;20316;-71
2022/09/20 10:33:00;;;;;;;2.78;1.45;;;;;;;16.98;100.00;102604.47;7377578;19;20010;-71
2022/09/20 10:35:59;;;;;;;7.70;2.08;;;;;;;16.72;100.00;102605.81;7379842;19;20018;-71
2022/09/20 10:38:34;;;;;;;5.13;1.70;;;;;;;16.68;100.00;102609.28;7379987;19;20010;-72
2022/09/20 10:44:11;;;;;;;8.73;2.15;;;;;;;17.10;100.00;102605.50;7379220;19;20342;-71
2022/09/20 10:46:50;;;;;;;6.15;1.95;;;;;;;17.65;100.00;102612.44;7381279;19;20325;-74
2022/09/20 10:49:29;;;;;;;7.07;2.47;;;;;;;17.66;100.00;102616.03;7379799;19;20486;-74
2022/09/20 10:52:25;;;;;;;7.25;2.10;;;;;;;17.78;100.00;102610.84;7380813;19;20083;-73
2022/09/20 10:55:11;;;;;;;4.70;1.90;;;;;;;18.22;100.00;102611.31;7379663;19;20011;-71
2022/09/20 10:58:30;;;;;;;7.57;2.00;;;;;;;18.15;100.00;102609.47;7377325;19;20015;-71
2022/09/20 11:01:04;;;;;;;6.40;2.25;;;;;;;17.90;100.00;102613.63;7379085;19;20011;-70
2022/09/20 11:03:57;;;;;;;6.80;2.13;;;;;;;17.61;100.00;102616.81;7379489;19;20010;-71
2022/09/20 11:06:37;;;;;;;3.65;1.90;;;;;;;17.98;100.00;102604.88;7379795;19;20050;-70
2022/09/20 11:09:15;;;;;;;7.57;1.80;;;;;;;18.17;100.00;102613.94;7380528;19;20016;-70
2022/09/20 11:11:49;;;;;;;6.15;1.63;;;;;;;18.41;100.00;102618.59;7377917;19;20494;-70
2022/09/20 11:14:27;;;;;;;7.70;2.25;;;;;;;18.75;100.00;102614.44;7379565;19;20046;-69
2022/09/20 11:17:03;;;;;;;7.95;2.40;;;;;;;18.88;100.00;102618.09;7379297;19;20025;-70
2022/09/20 11:19:41;;;;;;;5.70;2.10;;;;;;;18.68;100.00;102612.66;7379293;19;20196;-70
2022/09/20 11:22:17;;;;;;;6.90;2.08;;;;;;;18.83;100.00;102606.53;7380022;19;20061;-71
2022/09/20 11:24:56;;;;;;;5.45;2.15;;;;;;;19.15;100.00;102615.63;7376465;19;20967;-72
2022/09/20 11:27:31;;;;;;;6.50;1.85;;;;;;;19.10;100.00;102611.16;7379358;19;20014;-71
2022/09/20 11:30:06;;;;;;;7.07;2.15;;;;;;;19.17;99.84;102605.88;7380092;19;20015;-71
2022/09/20 11:32:42;;;;;;;7.50;2.13;;;;;;;19.75;98.20;102603.50;7376941;19;20478;-70
2022/09/20 11:35:26;;;;;;;5.35;1.88;;;;;;;19.50;96.21;102604.25;7380229;19;20586;-72
2022/09/20 11:38:05;;;;;;;4.63;2.05;;;;;;;19.12;94.61;102604.06;7377992;19;20021;-74
2022/09/20 11:40:41;;;;;;;7.00;1.70;;;;;;;18.98;100.00;102606.63;7382536;19;20010;-70
2022/09/20 11:43:14;;;;;;;6.13;1.83;;;;;;;18.40;100.00;102614.16;7387366;19;20404;-70
2022/09/20 11:45:48;;;;;;;4.03;1.63;;;;;;;18.37;100.00;102611.47;7385948;19;20015;-70
2022/09/20 11:48:23;;;;;;;4.45;1.77;;;;;;;18.52;100.00;102616.03;7385039;19;20066;-73
2022/09/20 11:51:16;;;;;;;3.90;1.55;;;;;;;18.30;100.00;102620.25;7382220;19;20129;-70
2022/09/20 11:54:17;;;;;;;7.20;1.88;;;;;;;18.35;100.00;102613.22;7379341;19;20010;-69
2022/09/20 11:56:56;;;;;;;5.78;1.52;;;;;;;18.94;100.00;102612.81;7386835;19;20015;-68
2022/09/20 11:59:31;;;;;;;5.72;1.85;;;;;;;18.71;100.00;102617.09;7382629;19;20033;-68
2022/09/20 12:02:02;;;;;;;3.00;1.50;;;;;;;18.41;100.00;102618.59;7381984;19;20116;-69
2022/09/20 12:04:36;;;;;;;6.50;1.67;;;;;;;18.30;100.00;102618.47;7385377;19;20562;-69
2022/09/20 12:07:09;;;;;;;7.55;1.73;;;;;;;18.16;100.00;102613.91;7383225;19;20439;-69
2022/09/20 12:09:53;;;;;;;6.47;1.50;;;;;;;18.57;100.00;102619.63;7386883;19;20017;-72
2022/09/20 12:12:34;;;;;;;7.22;1.58;;;;;;;18.27;100.00;102620.22;7383507;19;20150;-73
2022/09/20 12:15:07;;;;;;;3.47;1.58;;;;;;;18.23;100.00;102623.72;7376574;19;20137;-74
2022/09/20 12:18:07;;;;;;;3.40;1.60;;;;;;;18.18;100.00;102617.47;7385336;19;20017;-72
2022/09/20 12:21:09;;;;;;;6.38;1.75;;;;;;;18.13;100.00;102625.38;7383001;19;20018;-73
2022/09/20 12:24:09;;;;;;;4.43;1.33;;;;;;;18.15;100.00;102628.06;7383385;19;20066;-73
2022/09/20 12:26:55;;;;;;;3.00;1.20;;;;;;;17.94;100.00;102636.69;7383505;19;20015;-72
2022/09/20 12:30:05;;;;;;;4.60;1.40;;;;;;;18.03;100.00;102635.91;7385132;19;20032;-72